sensor_id;sensor_type;location;lat;lon;timestamp;temperature;humidity
52209;DHT22;38507;53.132;6.394;2023-12-20T00:02:19;6.50;99.90
52209;DHT22;38507;53.132;6.394;2023-12-20T00:04:45;5.60;99.90
52209;DHT22;38507;53.132;6.394;2023-12-20T00:07:11;6.60;99.90
52209;DHT22;38507;53.132;6.394;2023-12-20T00:09:36;5.70;99.90
52209;DHT22;38507;53.132;6.394;2023-12-20T00:12:02;6.00;99.90
52209;DHT22;38507;53.132;6.394;2023-12-20T00:14:28;5.60;99.90
52209;DHT22;38507;53.132;6.394;2023-12-20T00:16:53;6.20;99.90
52209;DHT22;38507;53.132;6.394;2023-12-20T00:19:19;6.40;99.90
52209;DHT22;38507;53.132;6.394;2023-12-20T00:21:45;5.60;99.90
52209;DHT22;38507;53.132;6.394;2023-12-20T00:24:11;5.70;99.90
52209;DHT22;38507;53.132;6.394;2023-12-20T00:26:36;5.60;99.90
52209;DHT22;38507;53.132;6.394;2023-12-20T00:29:02;6.30;99.90
52209;DHT22;38507;53.132;6.394;2023-12-20T00:31:28;6.40;99.90
52209;DHT22;38507;53.132;6.394;2023-12-20T00:33:53;5.70;99.90
52209;DHT22;38507;53.132;6.394;2023-12-20T00:36:20;5.70;99.90
52209;DHT22;38507;53.132;6.394;2023-12-20T00:38:45;5.70;99.90
52209;DHT22;38507;53.132;6.394;2023-12-20T00:41:11;6.40;99.90
52209;DHT22;38507;53.132;6.394;2023-12-20T00:43:36;5.70;99.90
52209;DHT22;38507;53.132;6.394;2023-12-20T00:46:02;5.70;99.90
52209;DHT22;38507;53.132;6.394;2023-12-20T00:48:28;5.60;99.90
52209;DHT22;38507;53.132;6.394;2023-12-20T00:50:55;5.60;99.90
52209;DHT22;38507;53.132;6.394;2023-12-20T00:53:21;5.60;99.90
52209;DHT22;38507;53.132;6.394;2023-12-20T00:55:47;6.20;99.90
52209;DHT22;38507;53.132;6.394;2023-12-20T00:58:12;5.60;99.90
52209;DHT22;38507;53.132;6.394;2023-12-20T01:00:40;5.60;99.90
52209;DHT22;38507;53.132;6.394;2023-12-20T01:03:07;5.80;99.90
52209;DHT22;38507;53.132;6.394;2023-12-20T01:05:33;5.60;99.90
52209;DHT22;38507;53.132;6.394;2023-12-20T01:07:58;5.70;99.90
52209;DHT22;38507;53.132;6.394;2023-12-20T01:10:24;5.60;99.90
52209;DHT22;38507;53.132;6.394;2023-12-20T01:12:53;5.70;99.90
52209;DHT22;38507;53.132;6.394;2023-12-20T01:15:19;5.90;99.90
52209;DHT22;38507;53.132;6.394;2023-12-20T01:17:44;5.70;99.90
52209;DHT22;38507;53.132;6.394;2023-12-20T01:20:10;6.30;99.90
52209;DHT22;38507;53.132;6.394;2023-12-20T01:22:36;6.40;99.90
52209;DHT22;38507;53.132;6.394;2023-12-20T01:25:02;5.60;99.90
52209;DHT22;38507;53.132;6.394;2023-12-20T01:27:28;5.70;99.90
52209;DHT22;38507;53.132;6.394;2023-12-20T01:29:54;5.60;99.90
52209;DHT22;38507;53.132;6.394;2023-12-20T01:32:19;5.60;99.90
52209;DHT22;38507;53.132;6.394;2023-12-20T01:34:45;5.80;99.90
52209;DHT22;38507;53.132;6.394;2023-12-20T01:37:11;5.60;99.90
52209;DHT22;38507;53.132;6.394;2023-12-20T01:39:36;5.80;99.90
52209;DHT22;38507;53.132;6.394;2023-12-20T01:42:02;6.30;99.90
52209;DHT22;38507;53.132;6.394;2023-12-20T01:44:28;5.50;99.90
52209;DHT22;38507;53.132;6.394;2023-12-20T01:46:54;5.50;99.90
52209;DHT22;38507;53.132;6.394;2023-12-20T01:49:20;5.50;99.90
52209;DHT22;38507;53.132;6.394;2023-12-20T01:51:46;5.50;99.90
52209;DHT22;38507;53.132;6.394;2023-12-20T01:54:12;6.00;99.90
52209;DHT22;38507;53.132;6.394;2023-12-20T01:56:39;5.60;99.90
52209;DHT22;38507;53.132;6.394;2023-12-20T01:59:06;5.70;99.90
52209;DHT22;38507;53.132;6.394;2023-12-20T02:01:32;5.60;99.90
52209;DHT22;38507;53.132;6.394;2023-12-20T02:03:58;5.70;99.90
52209;DHT22;38507;53.132;6.394;2023-12-20T02:06:29;5.80;99.90
52209;DHT22;38507;53.132;6.394;2023-12-20T02:08:55;5.80;99.90
52209;DHT22;38507;53.132;6.394;2023-12-20T02:11:22;5.80;99.90
52209;DHT22;38507;53.132;6.394;2023-12-20T02:13:47;5.80;99.90
52209;DHT22;38507;53.132;6.394;2023-12-20T02:16:13;5.80;99.90
52209;DHT22;38507;53.132;6.394;2023-12-20T02:18:39;5.80;99.90
52209;DHT22;38507;53.132;6.394;2023-12-20T02:21:05;5.90;99.90
52209;DHT22;38507;53.132;6.394;2023-12-20T02:23:31;6.40;99.90
52209;DHT22;38507;53.132;6.394;2023-12-20T02:25:57;5.90;99.90
52209;DHT22;38507;53.132;6.394;2023-12-20T02:28:22;5.80;99.90
52209;DHT22;38507;53.132;6.394;2023-12-20T02:30:48;5.90;99.90
52209;DHT22;38507;53.132;6.394;2023-12-20T02:33:15;6.60;99.90
52209;DHT22;38507;53.132;6.394;2023-12-20T02:35:41;6.30;99.90
52209;DHT22;38507;53.132;6.394;2023-12-20T02:38:06;6.00;99.90
52209;DHT22;38507;53.132;6.394;2023-12-20T02:40:32;6.10;99.90
52209;DHT22;38507;53.132;6.394;2023-12-20T02:42:58;6.00;99.90
52209;DHT22;38507;53.132;6.394;2023-12-20T02:45:23;6.10;99.90
52209;DHT22;38507;53.132;6.394;2023-12-20T02:47:49;6.10;99.90
52209;DHT22;38507;53.132;6.394;2023-12-20T02:50:15;6.10;99.90
52209;DHT22;38507;53.132;6.394;2023-12-20T02:52:40;6.10;99.90
52209;DHT22;38507;53.132;6.394;2023-12-20T02:55:06;6.10;99.90
52209;DHT22;38507;53.132;6.394;2023-12-20T02:57:32;6.10;99.90
52209;DHT22;38507;53.132;6.394;2023-12-20T02:59:58;6.00;99.90
52209;DHT22;38507;53.132;6.394;2023-12-20T03:02:24;6.10;99.90
52209;DHT22;38507;53.132;6.394;2023-12-20T03:04:50;6.10;99.90
52209;DHT22;38507;53.132;6.394;2023-12-20T03:07:15;6.10;99.90
52209;DHT22;38507;53.132;6.394;2023-12-20T03:09:41;6.10;99.90
52209;DHT22;38507;53.132;6.394;2023-12-20T03:12:07;6.10;99.90
52209;DHT22;38507;53.132;6.394;2023-12-20T03:14:32;6.10;99.90
52209;DHT22;38507;53.132;6.394;2023-12-20T03:16:58;6.10;99.90
52209;DHT22;38507;53.132;6.394;2023-12-20T03:19:23;6.00;99.90
52209;DHT22;38507;53.132;6.394;2023-12-20T03:21:49;6.10;99.90
52209;DHT22;38507;53.132;6.394;2023-12-20T03:24:14;6.20;99.90
52209;DHT22;38507;53.132;6.394;2023-12-20T03:26:40;6.20;99.90
52209;DHT22;38507;53.132;6.394;2023-12-20T03:29:06;6.20;99.90
52209;DHT22;38507;53.132;6.394;2023-12-20T03:31:31;6.30;99.90
52209;DHT22;38507;53.132;6.394;2023-12-20T03:33:57;6.20;99.90
52209;DHT22;38507;53.132;6.394;2023-12-20T03:36:23;6.30;99.90
52209;DHT22;38507;53.132;6.394;2023-12-20T03:38:48;6.20;99.90
52209;DHT22;38507;53.132;6.394;2023-12-20T03:41:14;6.30;99.90
52209;DHT22;38507;53.132;6.394;2023-12-20T03:43:39;6.30;99.90
52209;DHT22;38507;53.132;6.394;2023-12-20T03:46:05;6.90;99.90
52209;DHT22;38507;53.132;6.394;2023-12-20T03:48:33;6.30;99.90
52209;DHT22;38507;53.132;6.394;2023-12-20T03:50:58;6.20;99.90
52209;DHT22;38507;53.132;6.394;2023-12-20T03:53:24;6.30;99.90
52209;DHT22;38507;53.132;6.394;2023-12-20T03:55:49;6.30;99.90
52209;DHT22;38507;53.132;6.394;2023-12-20T03:58:15;6.30;99.90
52209;DHT22;38507;53.132;6.394;2023-12-20T04:00:41;6.30;99.90
52209;DHT22;38507;53.132;6.394;2023-12-20T04:03:07;6.40;99.90
52209;DHT22;38507;53.132;6.394;2023-12-20T04:05:32;6.40;99.90
52209;DHT22;38507;53.132;6.394;2023-12-20T04:08:00;6.40;99.90
52209;DHT22;38507;53.132;6.394;2023-12-20T04:10:26;6.40;99.90
52209;DHT22;38507;53.132;6.394;2023-12-20T04:12:52;7.20;99.90
52209;DHT22;38507;53.132;6.394;2023-12-20T04:15:17;6.40;99.90
52209;DHT22;38507;53.132;6.394;2023-12-20T04:17:43;7.20;99.90
52209;DHT22;38507;53.132;6.394;2023-12-20T04:20:09;6.40;99.90
52209;DHT22;38507;53.132;6.394;2023-12-20T04:22:34;6.40;99.90
52209;DHT22;38507;53.132;6.394;2023-12-20T04:25:00;6.50;99.90
52209;DHT22;38507;53.132;6.394;2023-12-20T04:27:26;6.40;99.90
52209;DHT22;38507;53.132;6.394;2023-12-20T04:29:51;7.00;99.90
52209;DHT22;38507;53.132;6.394;2023-12-20T04:32:17;6.50;99.90
52209;DHT22;38507;53.132;6.394;2023-12-20T04:34:42;6.50;99.90
52209;DHT22;38507;53.132;6.394;2023-12-20T04:37:08;6.50;99.90
52209;DHT22;38507;53.132;6.394;2023-12-20T04:39:34;6.50;99.90
52209;DHT22;38507;53.132;6.394;2023-12-20T04:41:59;7.20;99.90
52209;DHT22;38507;53.132;6.394;2023-12-20T04:44:25;6.60;99.90
52209;DHT22;38507;53.132;6.394;2023-12-20T04:46:52;6.60;99.90
52209;DHT22;38507;53.132;6.394;2023-12-20T04:49:17;6.60;99.90
52209;DHT22;38507;53.132;6.394;2023-12-20T04:51:43;6.70;99.90
52209;DHT22;38507;53.132;6.394;2023-12-20T04:54:08;6.70;99.90
52209;DHT22;38507;53.132;6.394;2023-12-20T04:56:35;6.70;99.90
52209;DHT22;38507;53.132;6.394;2023-12-20T04:59:01;6.70;99.90
52209;DHT22;38507;53.132;6.394;2023-12-20T05:01:27;6.70;99.90
52209;DHT22;38507;53.132;6.394;2023-12-20T05:03:53;6.70;99.90
52209;DHT22;38507;53.132;6.394;2023-12-20T05:06:18;7.20;99.90
52209;DHT22;38507;53.132;6.394;2023-12-20T05:08:44;6.70;99.90
52209;DHT22;38507;53.132;6.394;2023-12-20T05:11:09;6.70;99.90
52209;DHT22;38507;53.132;6.394;2023-12-20T05:13:35;6.70;99.90
52209;DHT22;38507;53.132;6.394;2023-12-20T05:16:01;6.70;99.90
52209;DHT22;38507;53.132;6.394;2023-12-20T05:18:26;6.90;99.90
52209;DHT22;38507;53.132;6.394;2023-12-20T05:20:52;6.80;99.90
52209;DHT22;38507;53.132;6.394;2023-12-20T05:23:18;6.80;99.90
52209;DHT22;38507;53.132;6.394;2023-12-20T05:25:44;6.90;99.90
52209;DHT22;38507;53.132;6.394;2023-12-20T05:28:09;6.90;99.90
52209;DHT22;38507;53.132;6.394;2023-12-20T05:30:35;7.00;99.90
52209;DHT22;38507;53.132;6.394;2023-12-20T05:33:01;7.10;99.90
52209;DHT22;38507;53.132;6.394;2023-12-20T05:35:26;6.90;99.90
52209;DHT22;38507;53.132;6.394;2023-12-20T05:37:52;6.90;99.90
52209;DHT22;38507;53.132;6.394;2023-12-20T05:40:18;6.90;99.90
52209;DHT22;38507;53.132;6.394;2023-12-20T05:42:43;6.90;99.90
52209;DHT22;38507;53.132;6.394;2023-12-20T05:45:09;6.90;99.90
52209;DHT22;38507;53.132;6.394;2023-12-20T05:47:35;6.90;99.90
52209;DHT22;38507;53.132;6.394;2023-12-20T05:50:01;6.90;99.90
52209;DHT22;38507;53.132;6.394;2023-12-20T05:52:26;6.90;99.90
52209;DHT22;38507;53.132;6.394;2023-12-20T05:54:52;6.90;99.90
52209;DHT22;38507;53.132;6.394;2023-12-20T05:57:18;6.90;99.90
52209;DHT22;38507;53.132;6.394;2023-12-20T05:59:43;7.00;99.90
52209;DHT22;38507;53.132;6.394;2023-12-20T06:02:09;7.00;99.90
52209;DHT22;38507;53.132;6.394;2023-12-20T06:04:35;7.00;99.90
52209;DHT22;38507;53.132;6.394;2023-12-20T06:07:00;7.30;99.90
52209;DHT22;38507;53.132;6.394;2023-12-20T06:09:29;7.00;99.90
52209;DHT22;38507;53.132;6.394;2023-12-20T06:11:55;7.00;99.90
52209;DHT22;38507;53.132;6.394;2023-12-20T06:14:21;7.00;99.90
52209;DHT22;38507;53.132;6.394;2023-12-20T06:16:46;7.00;99.90
52209;DHT22;38507;53.132;6.394;2023-12-20T06:19:12;7.00;99.90
52209;DHT22;38507;53.132;6.394;2023-12-20T06:21:38;7.00;99.90
52209;DHT22;38507;53.132;6.394;2023-12-20T06:24:04;7.10;99.90
52209;DHT22;38507;53.132;6.394;2023-12-20T06:26:29;7.10;99.90
52209;DHT22;38507;53.132;6.394;2023-12-20T06:28:55;7.10;99.90
52209;DHT22;38507;53.132;6.394;2023-12-20T06:31:21;7.40;99.90
52209;DHT22;38507;53.132;6.394;2023-12-20T06:33:46;8.00;99.90
52209;DHT22;38507;53.132;6.394;2023-12-20T06:36:12;7.20;99.90
52209;DHT22;38507;53.132;6.394;2023-12-20T06:38:39;7.20;99.90
52209;DHT22;38507;53.132;6.394;2023-12-20T06:41:04;7.90;99.90
52209;DHT22;38507;53.132;6.394;2023-12-20T06:43:30;7.20;99.90
52209;DHT22;38507;53.132;6.394;2023-12-20T06:45:56;7.30;99.90
52209;DHT22;38507;53.132;6.394;2023-12-20T06:48:22;7.30;99.90
52209;DHT22;38507;53.132;6.394;2023-12-20T06:50:48;7.30;99.90
52209;DHT22;38507;53.132;6.394;2023-12-20T06:53:13;7.30;99.90
52209;DHT22;38507;53.132;6.394;2023-12-20T06:55:39;7.30;99.90
52209;DHT22;38507;53.132;6.394;2023-12-20T06:58:04;7.30;99.90
52209;DHT22;38507;53.132;6.394;2023-12-20T07:00:32;7.30;99.90
52209;DHT22;38507;53.132;6.394;2023-12-20T07:02:57;7.60;99.90
52209;DHT22;38507;53.132;6.394;2023-12-20T07:05:23;7.30;99.90
52209;DHT22;38507;53.132;6.394;2023-12-20T07:07:49;8.20;99.90
52209;DHT22;38507;53.132;6.394;2023-12-20T07:10:15;7.30;99.90
52209;DHT22;38507;53.132;6.394;2023-12-20T07:12:40;7.40;99.90
52209;DHT22;38507;53.132;6.394;2023-12-20T07:15:06;7.70;99.90
52209;DHT22;38507;53.132;6.394;2023-12-20T07:17:33;7.40;99.90
52209;DHT22;38507;53.132;6.394;2023-12-20T07:19:59;7.30;99.90
52209;DHT22;38507;53.132;6.394;2023-12-20T07:22:31;7.40;99.90
52209;DHT22;38507;53.132;6.394;2023-12-20T07:24:58;7.40;99.90
52209;DHT22;38507;53.132;6.394;2023-12-20T07:27:24;7.40;99.90
52209;DHT22;38507;53.132;6.394;2023-12-20T07:29:49;8.00;99.90
52209;DHT22;38507;53.132;6.394;2023-12-20T07:32:15;8.20;99.90
52209;DHT22;38507;53.132;6.394;2023-12-20T07:34:41;8.30;99.90
52209;DHT22;38507;53.132;6.394;2023-12-20T07:37:06;7.50;99.90
52209;DHT22;38507;53.132;6.394;2023-12-20T07:39:32;7.50;99.90
52209;DHT22;38507;53.132;6.394;2023-12-20T07:41:57;7.60;99.90
52209;DHT22;38507;53.132;6.394;2023-12-20T07:44:23;7.50;99.90
52209;DHT22;38507;53.132;6.394;2023-12-20T07:46:49;8.00;99.90
52209;DHT22;38507;53.132;6.394;2023-12-20T07:49:15;7.50;99.90
52209;DHT22;38507;53.132;6.394;2023-12-20T07:51:41;7.50;99.90
52209;DHT22;38507;53.132;6.394;2023-12-20T07:54:06;8.40;99.90
52209;DHT22;38507;53.132;6.394;2023-12-20T07:56:33;7.50;99.90
52209;DHT22;38507;53.132;6.394;2023-12-20T07:58:59;8.20;99.90
52209;DHT22;38507;53.132;6.394;2023-12-20T08:01:24;7.50;99.90
52209;DHT22;38507;53.132;6.394;2023-12-20T08:03:50;7.50;99.90
52209;DHT22;38507;53.132;6.394;2023-12-20T08:06:16;7.50;99.90
52209;DHT22;38507;53.132;6.394;2023-12-20T08:08:43;8.20;99.90
52209;DHT22;38507;53.132;6.394;2023-12-20T08:11:08;8.20;99.90
52209;DHT22;38507;53.132;6.394;2023-12-20T08:13:34;7.60;99.90
52209;DHT22;38507;53.132;6.394;2023-12-20T08:16:00;8.30;99.90
52209;DHT22;38507;53.132;6.394;2023-12-20T08:18:28;7.60;99.90
52209;DHT22;38507;53.132;6.394;2023-12-20T08:20:53;8.40;99.90
52209;DHT22;38507;53.132;6.394;2023-12-20T08:23:19;7.60;99.90
52209;DHT22;38507;53.132;6.394;2023-12-20T08:25:46;7.60;99.90
52209;DHT22;38507;53.132;6.394;2023-12-20T08:28:12;7.60;99.90
52209;DHT22;38507;53.132;6.394;2023-12-20T08:30:37;7.50;99.90
52209;DHT22;38507;53.132;6.394;2023-12-20T08:33:04;7.80;99.90
52209;DHT22;38507;53.132;6.394;2023-12-20T08:35:30;7.50;99.90
52209;DHT22;38507;53.132;6.394;2023-12-20T08:37:56;7.50;99.90
52209;DHT22;38507;53.132;6.394;2023-12-20T08:40:21;7.50;99.90
52209;DHT22;38507;53.132;6.394;2023-12-20T08:42:47;8.20;99.90
52209;DHT22;38507;53.132;6.394;2023-12-20T08:45:13;7.40;99.90
52209;DHT22;38507;53.132;6.394;2023-12-20T08:47:38;7.50;99.90
52209;DHT22;38507;53.132;6.394;2023-12-20T08:50:04;8.10;99.90
52209;DHT22;38507;53.132;6.394;2023-12-20T08:52:30;7.50;99.90
52209;DHT22;38507;53.132;6.394;2023-12-20T08:54:56;7.70;99.90
52209;DHT22;38507;53.132;6.394;2023-12-20T08:57:22;8.00;99.90
52209;DHT22;38507;53.132;6.394;2023-12-20T08:59:49;7.50;99.90
52209;DHT22;38507;53.132;6.394;2023-12-20T09:02:16;7.60;99.90
52209;DHT22;38507;53.132;6.394;2023-12-20T09:04:42;7.60;99.90
52209;DHT22;38507;53.132;6.394;2023-12-20T09:07:26;7.70;99.90
52209;DHT22;38507;53.132;6.394;2023-12-20T09:09:53;7.50;99.90
52209;DHT22;38507;53.132;6.394;2023-12-20T09:12:19;7.10;99.90
52209;DHT22;38507;53.132;6.394;2023-12-20T09:14:49;7.20;99.90
52209;DHT22;38507;53.132;6.394;2023-12-20T09:17:16;6.70;99.90
52209;DHT22;38507;53.132;6.394;2023-12-20T09:19:42;6.50;99.90
52209;DHT22;38507;53.132;6.394;2023-12-20T09:22:09;6.80;99.90
52209;DHT22;38507;53.132;6.394;2023-12-20T09:24:35;6.30;99.90
52209;DHT22;38507;53.132;6.394;2023-12-20T09:27:01;6.20;99.90
52209;DHT22;38507;53.132;6.394;2023-12-20T09:29:26;6.20;99.90
52209;DHT22;38507;53.132;6.394;2023-12-20T09:31:52;6.00;99.90
52209;DHT22;38507;53.132;6.394;2023-12-20T09:34:18;6.20;99.90
52209;DHT22;38507;53.132;6.394;2023-12-20T09:36:43;6.70;99.90
52209;DHT22;38507;53.132;6.394;2023-12-20T09:39:16;6.00;99.90
52209;DHT22;38507;53.132;6.394;2023-12-20T09:42:11;6.60;99.90
52209;DHT22;38507;53.132;6.394;2023-12-20T09:44:35;6.10;99.90
52209;DHT22;38507;53.132;6.394;2023-12-20T09:47:04;6.50;99.90
52209;DHT22;38507;53.132;6.394;2023-12-20T09:49:30;6.00;99.90
52209;DHT22;38507;53.132;6.394;2023-12-20T09:51:58;6.00;99.90
52209;DHT22;38507;53.132;6.394;2023-12-20T09:54:25;6.10;99.90
52209;DHT22;38507;53.132;6.394;2023-12-20T09:56:52;6.10;99.90
52209;DHT22;38507;53.132;6.394;2023-12-20T09:59:17;6.70;99.90
52209;DHT22;38507;53.132;6.394;2023-12-20T10:01:43;6.10;99.90
52209;DHT22;38507;53.132;6.394;2023-12-20T10:04:10;6.20;99.90
52209;DHT22;38507;53.132;6.394;2023-12-20T10:06:42;6.30;99.90
52209;DHT22;38507;53.132;6.394;2023-12-20T10:09:08;6.40;99.90
52209;DHT22;38507;53.132;6.394;2023-12-20T10:11:36;6.30;99.90
52209;DHT22;38507;53.132;6.394;2023-12-20T10:14:03;6.30;99.90
52209;DHT22;38507;53.132;6.394;2023-12-20T10:16:29;6.30;99.90
52209;DHT22;38507;53.132;6.394;2023-12-20T10:18:55;6.50;99.90
52209;DHT22;38507;53.132;6.394;2023-12-20T10:21:22;6.20;99.90
52209;DHT22;38507;53.132;6.394;2023-12-20T10:23:51;6.30;99.90
52209;DHT22;38507;53.132;6.394;2023-12-20T10:26:24;6.60;99.90
52209;DHT22;38507;53.132;6.394;2023-12-20T10:28:52;6.50;99.90
52209;DHT22;38507;53.132;6.394;2023-12-20T10:31:34;6.50;99.90
52209;DHT22;38507;53.132;6.394;2023-12-20T10:34:01;6.60;99.90
52209;DHT22;38507;53.132;6.394;2023-12-20T10:36:32;6.60;99.90
52209;DHT22;38507;53.132;6.394;2023-12-20T10:38:58;7.30;99.90
52209;DHT22;38507;53.132;6.394;2023-12-20T10:41:32;6.80;99.90
52209;DHT22;38507;53.132;6.394;2023-12-20T10:44:00;7.00;99.90
52209;DHT22;38507;53.132;6.394;2023-12-20T10:46:29;6.80;99.90
52209;DHT22;38507;53.132;6.394;2023-12-20T10:48:56;6.80;99.90
52209;DHT22;38507;53.132;6.394;2023-12-20T10:51:23;6.80;99.90
52209;DHT22;38507;53.132;6.394;2023-12-20T10:53:49;6.70;99.90
52209;DHT22;38507;53.132;6.394;2023-12-20T10:56:17;6.70;99.90
52209;DHT22;38507;53.132;6.394;2023-12-20T10:58:47;6.70;99.90
52209;DHT22;38507;53.132;6.394;2023-12-20T11:01:16;6.70;99.90
52209;DHT22;38507;53.132;6.394;2023-12-20T11:03:50;6.70;99.90
52209;DHT22;38507;53.132;6.394;2023-12-20T11:12:12;6.70;99.90
52209;DHT22;38507;53.132;6.394;2023-12-20T11:14:50;6.50;99.90
52209;DHT22;38507;53.132;6.394;2023-12-20T11:17:16;6.80;99.90
52209;DHT22;38507;53.132;6.394;2023-12-20T11:20:06;7.30;99.90
52209;DHT22;38507;53.132;6.394;2023-12-20T11:22:34;6.80;99.90
52209;DHT22;38507;53.132;6.394;2023-12-20T11:25:06;6.80;99.90
52209;DHT22;38507;53.132;6.394;2023-12-20T11:27:34;6.80;99.90
52209;DHT22;38507;53.132;6.394;2023-12-20T11:30:03;6.90;99.90
52209;DHT22;38507;53.132;6.394;2023-12-20T11:32:33;6.90;99.90
52209;DHT22;38507;53.132;6.394;2023-12-20T11:37:34;6.90;99.90
52209;DHT22;38507;53.132;6.394;2023-12-20T11:40:20;7.40;99.90
52209;DHT22;38507;53.132;6.394;2023-12-20T11:42:49;7.10;99.90
52209;DHT22;38507;53.132;6.394;2023-12-20T11:45:19;7.90;99.90
52209;DHT22;38507;53.132;6.394;2023-12-20T11:47:48;7.50;99.90
52209;DHT22;38507;53.132;6.394;2023-12-20T11:50:18;7.20;99.90
52209;DHT22;38507;53.132;6.394;2023-12-20T11:52:44;7.20;99.90
52209;DHT22;38507;53.132;6.394;2023-12-20T11:55:10;7.20;99.90
52209;DHT22;38507;53.132;6.394;2023-12-20T11:57:37;7.20;99.90
52209;DHT22;38507;53.132;6.394;2023-12-20T12:00:04;7.30;99.90
52209;DHT22;38507;53.132;6.394;2023-12-20T12:02:30;7.20;99.90
52209;DHT22;38507;53.132;6.394;2023-12-20T12:04:56;7.30;99.90
52209;DHT22;38507;53.132;6.394;2023-12-20T12:07:24;7.30;99.90
52209;DHT22;38507;53.132;6.394;2023-12-20T12:09:49;7.30;99.90
52209;DHT22;38507;53.132;6.394;2023-12-20T12:12:15;7.30;99.90
52209;DHT22;38507;53.132;6.394;2023-12-20T12:14:41;7.30;99.90
52209;DHT22;38507;53.132;6.394;2023-12-20T12:17:11;7.30;99.90
52209;DHT22;38507;53.132;6.394;2023-12-20T12:19:37;7.80;99.90
52209;DHT22;38507;53.132;6.394;2023-12-20T12:22:10;8.00;99.90
52209;DHT22;38507;53.132;6.394;2023-12-20T12:24:45;7.30;99.90
52209;DHT22;38507;53.132;6.394;2023-12-20T12:27:12;7.30;99.90
52209;DHT22;38507;53.132;6.394;2023-12-20T12:29:38;7.30;99.90
52209;DHT22;38507;53.132;6.394;2023-12-20T12:32:08;7.30;99.90
52209;DHT22;38507;53.132;6.394;2023-12-20T12:34:35;7.30;99.90
52209;DHT22;38507;53.132;6.394;2023-12-20T12:37:01;7.30;99.90
52209;DHT22;38507;53.132;6.394;2023-12-20T12:39:27;7.30;99.90
52209;DHT22;38507;53.132;6.394;2023-12-20T12:41:55;7.30;99.90
52209;DHT22;38507;53.132;6.394;2023-12-20T12:44:21;7.30;99.90
52209;DHT22;38507;53.132;6.394;2023-12-20T12:46:49;7.30;99.90
52209;DHT22;38507;53.132;6.394;2023-12-20T12:49:22;7.20;99.90
52209;DHT22;38507;53.132;6.394;2023-12-20T12:51:48;7.30;99.90
52209;DHT22;38507;53.132;6.394;2023-12-20T12:54:13;7.30;99.90
52209;DHT22;38507;53.132;6.394;2023-12-20T12:56:42;7.30;99.90
52209;DHT22;38507;53.132;6.394;2023-12-20T12:59:08;7.30;99.90
52209;DHT22;38507;53.132;6.394;2023-12-20T13:01:34;7.30;99.90
52209;DHT22;38507;53.132;6.394;2023-12-20T13:03:59;7.30;99.90
52209;DHT22;38507;53.132;6.394;2023-12-20T13:06:28;7.20;99.90
52209;DHT22;38507;53.132;6.394;2023-12-20T13:08:54;7.20;99.90
52209;DHT22;38507;53.132;6.394;2023-12-20T13:11:20;7.20;99.90
52209;DHT22;38507;53.132;6.394;2023-12-20T13:13:46;7.10;99.90
52209;DHT22;38507;53.132;6.394;2023-12-20T13:16:12;7.10;99.90
52209;DHT22;38507;53.132;6.394;2023-12-20T13:18:38;7.10;99.90
52209;DHT22;38507;53.132;6.394;2023-12-20T13:21:08;7.00;99.90
52209;DHT22;38507;53.132;6.394;2023-12-20T13:23:34;6.90;99.90
52209;DHT22;38507;53.132;6.394;2023-12-20T13:26:00;6.90;99.90
52209;DHT22;38507;53.132;6.394;2023-12-20T13:28:25;7.10;99.90
52209;DHT22;38507;53.132;6.394;2023-12-20T13:30:51;6.80;99.90
52209;DHT22;38507;53.132;6.394;2023-12-20T13:33:17;7.40;99.90
52209;DHT22;38507;53.132;6.394;2023-12-20T13:35:42;6.70;99.90
52209;DHT22;38507;53.132;6.394;2023-12-20T13:38:08;7.10;99.90
52209;DHT22;38507;53.132;6.394;2023-12-20T13:40:33;6.60;99.90
52209;DHT22;38507;53.132;6.394;2023-12-20T13:42:59;6.60;99.90
52209;DHT22;38507;53.132;6.394;2023-12-20T13:45:25;6.60;99.90
52209;DHT22;38507;53.132;6.394;2023-12-20T13:47:50;6.60;99.90
52209;DHT22;38507;53.132;6.394;2023-12-20T13:50:16;6.60;99.90
52209;DHT22;38507;53.132;6.394;2023-12-20T13:52:42;7.00;99.90
52209;DHT22;38507;53.132;6.394;2023-12-20T13:55:08;6.50;99.90
52209;DHT22;38507;53.132;6.394;2023-12-20T13:57:35;6.50;99.90
52209;DHT22;38507;53.132;6.394;2023-12-20T14:00:04;6.50;99.90
52209;DHT22;38507;53.132;6.394;2023-12-20T14:02:30;6.40;99.90
52209;DHT22;38507;53.132;6.394;2023-12-20T14:04:55;6.40;99.90
52209;DHT22;38507;53.132;6.394;2023-12-20T14:07:21;6.40;99.90
52209;DHT22;38507;53.132;6.394;2023-12-20T14:09:47;6.40;99.90
52209;DHT22;38507;53.132;6.394;2023-12-20T14:12:13;6.40;99.90
52209;DHT22;38507;53.132;6.394;2023-12-20T14:14:39;6.40;99.90
52209;DHT22;38507;53.132;6.394;2023-12-20T14:17:05;6.70;99.90
52209;DHT22;38507;53.132;6.394;2023-12-20T14:19:33;6.40;99.90
52209;DHT22;38507;53.132;6.394;2023-12-20T14:21:58;6.60;99.90
52209;DHT22;38507;53.132;6.394;2023-12-20T14:24:27;6.40;99.90
52209;DHT22;38507;53.132;6.394;2023-12-20T14:26:53;6.30;99.90
52209;DHT22;38507;53.132;6.394;2023-12-20T14:29:18;6.40;99.90
52209;DHT22;38507;53.132;6.394;2023-12-20T14:31:44;6.30;99.90
52209;DHT22;38507;53.132;6.394;2023-12-20T14:34:10;6.30;99.90
52209;DHT22;38507;53.132;6.394;2023-12-20T14:36:36;6.30;99.90
52209;DHT22;38507;53.132;6.394;2023-12-20T14:39:02;6.30;99.90
52209;DHT22;38507;53.132;6.394;2023-12-20T14:41:30;6.30;99.90
52209;DHT22;38507;53.132;6.394;2023-12-20T14:43:55;6.20;99.90
52209;DHT22;38507;53.132;6.394;2023-12-20T14:46:21;6.20;99.90
52209;DHT22;38507;53.132;6.394;2023-12-20T14:48:46;6.20;99.90
52209;DHT22;38507;53.132;6.394;2023-12-20T14:51:13;6.20;99.90
52209;DHT22;38507;53.132;6.394;2023-12-20T14:53:39;6.60;99.90
52209;DHT22;38507;53.132;6.394;2023-12-20T14:56:05;6.20;99.90
52209;DHT22;38507;53.132;6.394;2023-12-20T14:58:31;6.20;99.90
52209;DHT22;38507;53.132;6.394;2023-12-20T15:00:57;6.20;99.90
52209;DHT22;38507;53.132;6.394;2023-12-20T15:03:23;6.20;99.90
52209;DHT22;38507;53.132;6.394;2023-12-20T15:05:49;6.20;99.90
52209;DHT22;38507;53.132;6.394;2023-12-20T15:08:15;6.50;99.90
52209;DHT22;38507;53.132;6.394;2023-12-20T15:10:41;6.20;99.90
52209;DHT22;38507;53.132;6.394;2023-12-20T15:13:06;6.20;99.90
52209;DHT22;38507;53.132;6.394;2023-12-20T15:15:32;6.20;99.90
52209;DHT22;38507;53.132;6.394;2023-12-20T15:17:59;6.20;99.90
52209;DHT22;38507;53.132;6.394;2023-12-20T15:20:25;6.10;99.90
52209;DHT22;38507;53.132;6.394;2023-12-20T15:22:51;6.20;99.90
52209;DHT22;38507;53.132;6.394;2023-12-20T15:25:16;6.20;99.90
52209;DHT22;38507;53.132;6.394;2023-12-20T15:27:48;6.20;99.90
52209;DHT22;38507;53.132;6.394;2023-12-20T15:30:19;6.20;99.90
52209;DHT22;38507;53.132;6.394;2023-12-20T15:32:45;6.20;99.90
52209;DHT22;38507;53.132;6.394;2023-12-20T15:35:10;6.20;99.90
52209;DHT22;38507;53.132;6.394;2023-12-20T15:37:38;6.20;99.90
52209;DHT22;38507;53.132;6.394;2023-12-20T15:40:04;6.20;99.90
52209;DHT22;38507;53.132;6.394;2023-12-20T15:42:30;6.30;99.90
52209;DHT22;38507;53.132;6.394;2023-12-20T15:44:57;6.30;99.90
52209;DHT22;38507;53.132;6.394;2023-12-20T15:47:23;6.30;99.90
52209;DHT22;38507;53.132;6.394;2023-12-20T15:49:48;6.40;99.90